Flight Track Log - Related Links

Times and Time Zones

All times are in EST time to prevent confusion due to time zone crossing. See the EGF2805 flight status page for this flight to view local times or setup timezone preferences in your user account.

Time Position Orientation Groundspeed Altitude Reporting Facility
EST Latitude Longitude Course Direction KTS MPH feet Rate Location/Type
Thu 05:18:24 PM 41.9333 -87.9000 90° East 173 199 1,800  Level Chicago TRACON
Thu 05:19:24 PM 41.9000 -87.8500 132° Southeast 215 247 3,900 2,213 Climbing Chicago TRACON
Thu 05:20:00 PM 41.9500 -87.4595 90° East  Level FlightAware Approximate
Thu 05:20:26 PM 41.8564 -87.7758 128° Southeast 252 290 6,300  Level Chicago Center
Thu 05:21:00 PM 41.9462 -87.3124 95° East  Level FlightAware Approximate
Thu 05:21:28 PM 41.8439 -87.6761 100° East 273 314 8,500  Level Chicago Center
Thu 05:22:00 PM 41.9357 -87.1657 95° East  Level FlightAware Approximate
Thu 05:22:30 PM 41.8444 -87.5542 90° East 307 353 10,500  Level Chicago Center
Thu 05:23:00 PM 41.9333 -87.0184 90° East  Level FlightAware Approximate
Thu 05:23:32 PM 41.8597 -87.4347 80° East 325 374 12,300  Level Chicago Center
Thu 05:24:34 PM 41.8842 -87.3075 75° East 357 411 13,500 1,210 Climbing Chicago Center
Thu 05:25:36 PM 41.8689 -87.1503 97° East 396 456 14,800 1,306 Climbing Chicago Center
Thu 05:26:38 PM 41.8583 -86.9967 95° East 412 474 16,200 1,392 Climbing Chicago Center
Thu 05:27:41 PM 41.8444 -86.8242 96° East 429 494 17,700 1,200 Climbing Chicago Center
Thu 05:28:43 PM 41.8344 -86.6653 95° East 436 502 18,700 629 Climbing Chicago Center
Thu 05:29:45 PM 41.8211 -86.4928 96° East 461 531 19,000 145 Climbing Chicago Center
Thu 05:30:47 PM 41.8000 -86.3117 99° East 491 565 19,000  Level Chicago Center
Thu 05:31:49 PM 41.7592 -86.1317 107° East 507 583 19,000  Level Chicago Center
Thu 05:32:51 PM 41.6364 -85.9872 139° Southeast 493 567 19,000 -629 Level Chicago Center
Thu 05:33:53 PM 41.5383 -85.8703 138° Southeast 479 551 17,700 -1,742 Descending Chicago Center
Thu 05:34:55 PM 41.4458 -85.7581 138° Southeast 459 528 15,400 -2,226 Descending Chicago Center
Thu 05:35:57 PM 41.3753 -85.6281 126° Southeast 441 507 13,100 -1,790 Descending Chicago Center
Thu 05:36:59 PM 41.3125 -85.5081 125° Southeast 409 471 11,700 -1,392 Descending Chicago Center
Thu 05:38:02 PM 41.2353 -85.3928 132° Southeast 362 417 10,200 -1,536 Descending Chicago Center
Thu 05:39:04 PM 41.1747 -85.3092 134° Southeast 330 380 8,500 -1,500 Descending Chicago Center
Thu 05:40:06 PM 41.1175 -85.2322 135° Southeast 310 357 7,100 -1,548 Descending Chicago Center
Thu 05:41:08 PM 41.0675 -85.1661 135° Southeast 276 318 5,300 -1,839 Descending Chicago Center
Thu 05:42:10 PM 41.0200 -85.1056 136° Southeast 250 288 3,300 -1,355 Descending Chicago Center
Thu 05:43:12 PM 40.9664 -85.0814 161° South 216 249 2,500 -624 Descending Chicago Center
Thu 05:44:15 PM 40.9478 -85.1361 246° West 200 230 2,000 -476 Descending Chicago Center

Login

Don't have an account? Register now (free) for customized features, flight alerts, and more!